May 22, 2022

Time Code Weather Temp. Visibility Clouds Wind METAR/SPECI
8:20 am
V
57 °F 6¼ mi+ - 040°   040° 1 kt METAR ETHL 220620Z 04001KT 9999 FEW045 14/09 Q1017 BLU+
7:20 am
V
52 °F 6¼ mi+ - 270°   270° 2 kt METAR ETHL 220520Z 27002KT 9999 FEW045 11/09 Q1018 BLU+
6:20 am
V
48 °F 6¼ mi+ - 190°   190° 2 kt METAR ETHL 220420Z 19002KT 9999 MIFG FEW045 SCT230 09/08 Q1018 BLU+
5:20 am
M
50 °F 3¾ mi - 060°   060° 1 kt METAR ETHL 220320Z AUTO 06001KT 6000 // ////// 10/08 Q1018 ///
4:20 am
M
50 °F 3¾ mi - 350°   350° 1 kt METAR ETHL 220220Z AUTO 35001KT 6000 // ////// 10/08 Q1019 ///
3:20 am
M
50 °F 3¾ mi - 010°   010° 2 kt METAR ETHL 220120Z AUTO 01002KT 6000 // ////// 10/08 Q1019 ///
2:20 am
M
52 °F 3⅛ mi - Var   000° 0 kt METAR ETHL 220020Z AUTO 00000KT 5000 // ////// 11/07 Q1019 ///
1:20 am
M
54 °F 3¾ mi - 080°   080° 1 kt METAR ETHL 212320Z AUTO 08001KT 6000 // ////// 12/07 Q1020 ///
12:20 am
M
55 °F 3¾ mi - 090°   090° 2 kt METAR ETHL 212220Z AUTO 09002KT 6000 // ////// 13/08 Q1020 ///

May 21, 2022

Time Code Weather Temp. Visibility Clouds Wind METAR/SPECI
11:20 pm
M
55 °F 3¾ mi - 030°   030° 2 kt METAR ETHL 212120Z AUTO 03002KT 6000 // ////// 13/08 Q1020 ///
10:20 pm
M
59 °F 3⅛ mi - 070°   070° 2 kt METAR ETHL 212020Z AUTO 07002KT 5000 // ////// 15/08 Q1020 ///
9:20 pm
M
61 °F 3⅛ mi - 060°   060° 2 kt METAR ETHL 211920Z AUTO 06002KT 5000 // ////// 16/09 Q1020 ///
8:20 pm
M
64 °F 3¾ mi - 030°   030° 4 kt METAR ETHL 211820Z AUTO 03004KT 6000 // ////// 18/09 Q1020 ///
7:20 pm
M
68 °F 3¾ mi - 030°   030° 6 kt METAR ETHL 211720Z AUTO 03006KT 6000 // ////// 20/09 Q1020 ///
6:20 pm
V
70 °F 6¼ mi+ 21,000 ft 330°   330° 4 kt METAR ETHL 211620Z 33004KT 9999 FEW050 BKN210 21/06 Q1020 BLU+
5:20 pm
V
72 °F 6¼ mi+ 24,000 ft 300°   300° 6 kt METAR ETHL 211520Z 30006KT 9999 FEW060 BKN240 BKN310 22/05 Q1020 BLU+
4:20 pm
V
73 °F 6¼ mi+ 35,000 ft 280°   280° 8 kt METAR ETHL 211420Z 28008KT 9999 FEW060 SCT290 BKN350 23/06 Q1021 BLU+
3:20 pm
V
72 °F 6¼ mi+ 33,000 ft 290°   290° 4 kt METAR ETHL 211320Z 29004KT 9999 FEW060 BKN330 22/07 Q1021 BLU+
2:20 pm
V
70 °F 6¼ mi+ 33,000 ft 250°   250° 5 kt METAR ETHL 211220Z 25005KT 9999 FEW050 BKN330 21/08 Q1022 BLU+
1:20 pm
V
68 °F 6¼ mi+ 33,000 ft 230°   230° 6 kt METAR ETHL 211120Z 23006KT 9999 FEW045 BKN330 20/08 Q1022 BLU+
12:20 pm
V
66 °F 6¼ mi+ 35,000 ft 250°   250° 6 kt METAR ETHL 211020Z 25006KT 9999 FEW040 BKN350 19/08 Q1023 BLU+
11:20 am
V
64 °F 6¼ mi+ - 260°   260° 6 kt METAR ETHL 210920Z 26006KT 9999 FEW020 SCT360 18/08 Q1023 BLU+
10:20 am
V
61 °F 6¼ mi+ - 250°   250° 6 kt METAR ETHL 210820Z 25006KT 9999 FEW020 SCT360 16/07 Q1024 BLU+
9:20 am
V
61 °F 6¼ mi+ - 290°   290° 4 kt METAR ETHL 210720Z 29004KT 9999 FEW020 SCT360 16/09 Q1024 BLU+
8:20 am
V
59 °F 6¼ mi+ - 290°   290° 4 kt METAR ETHL 210620Z 29004KT 9999 FEW020 15/09 Q1023 BLU+
7:20 am
V
57 °F 6¼ mi+ - 290°   290° 5 kt METAR ETHL 210520Z 29005KT 9999 FEW015 14/10 Q1023 BLU+
6:20 am
V
57 °F 6¼ mi+ - 270°   270° 2 kt METAR ETHL 210420Z 27002KT 9999 FEW015 14/11 Q1023 BLU+
5:20 am
V
59 °F 6¼ mi+ - Var   Var 2 kt METAR ETHL 210320Z VRB02KT 9999 FEW030 SCT090 15/11 Q1022 BLU+
4:20 am
V
59 °F 6¼ mi+ 9,000 ft 280°   280° 8 kt METAR ETHL 210220Z 28008KT 9999 FEW050 BKN090 15/12 Q1022 BLU
3:20 am
V
61 °F 6¼ mi+ 9,000 ft 270°   270° 8 kt METAR ETHL 210120Z 27008KT 9999 FEW050 BKN090 16/13 Q1022 BLU
2:20 am
V
61 °F 6¼ mi+ 5,000 ft 280°   280° 7 kt METAR ETHL 210020Z 28007KT 9999 BKN050 16/13 Q1022 BLU
1:20 am
V
63 °F 6¼ mi+ 9,000 ft 290°   290° 7 kt METAR ETHL 202320Z 29007KT 9999 -SHRA SCT050CB BKN090 17/14 Q1021 RETSRA BLU
12:31 am
V
68 °F 6¼ mi+ 10,000 ft 300°   300° 8 21 kt METAR ETHL 202231Z 30008G21KT 9999 -TSRA SCT050CB BKN100 20/14 Q1020 BLU
12:20 am
V
70 °F 6¼ mi+ 10,000 ft 320°   320° 7 17 kt METAR ETHL 202220Z 32007G17KT 9999 FEW050 BKN100 21/13 Q1020 BLU

May 20, 2022

Time Code Weather Temp. Visibility Clouds Wind METAR/SPECI
11:20 pm
V
75 °F 6¼ mi+ 10,000 ft 270°   270° 14 kt METAR ETHL 202120Z 27014KT 9999 FEW050 BKN100 24/09 Q1019 RETS BLU
10:37 pm
V
75 °F 6¼ mi+ 10,000 ft 270°   270° 13 kt METAR ETHL 202037Z 27013KT 9999 VCTS FEW050CB BKN100 24/10 Q1018 BLU
10:20 pm
V
75 °F 6¼ mi+ 10,000 ft 250°   250° 9 kt METAR ETHL 202020Z 25009KT 9999 FEW050 BKN100 24/10 Q1019 BLU
9:20 pm
V
75 °F 6¼ mi+ 14,000 ft 250°   250° 9 kt METAR ETHL 201920Z 25009KT 9999 FEW060 BKN140 24/10 Q1018 BLU
8:20 pm
V
75 °F 6¼ mi+ 34,000 ft Var   Var 2 kt METAR ETHL 201820Z VRB02KT 9999 FEW060CB SCT140 BKN340 24/15 Q1017 RETS BLU+
7:20 pm
V
81 °F 6¼ mi+ 34,000 ft 270°   270° 10 kt METAR ETHL 201720Z 27010KT 9999 -TSRA FEW060CB BKN340 27/13 Q1017 BLU+
6:20 pm
V
84 °F 6¼ mi+ - 250°   250° 12 kt METAR ETHL 201620Z 25012KT 9999 FEW060CB SCT350 29/10 Q1016 BLU+
5:20 pm
V
84 °F 6¼ mi+ - 230°   230° 9 kt METAR ETHL 201520Z 23009KT 9999 FEW060CB SCT360 29/11 Q1017 BLU+
4:20 pm
V
84 °F 6¼ mi+ - 230°   230° 10 kt METAR ETHL 201420Z 23010KT 9999 FEW150 SCT360 29/10 Q1018 BLU+
3:20 pm
V
84 °F 6¼ mi+ - 220°   220° 9 kt METAR ETHL 201320Z 22009KT 9999 FEW060 SCT360 29/11 Q1019 BLU+
2:20 pm
V
82 °F 6¼ mi+ - 250°   250° 10 kt METAR ETHL 201220Z 25010KT 9999 FEW060 SCT360 28/11 Q1020 BLU+
1:20 pm
V
82 °F 6¼ mi+ - 250°   250° 10 21 kt METAR ETHL 201120Z 25010G21KT 9999 FEW060 SCT360 28/12 Q1021 BLU+
12:45 pm
V
81 °F 6¼ mi+ - 240°   240° 7 kt METAR ETHL 201045Z 24007KT 9999 FEW050 SCT360 27/14 Q1021 BLU+FCST CNL
12:20 pm
V
79 °F 6¼ mi+ - 230°   230° 7 kt METAR ETHL 201020Z 23007KT 9999 FEW050 SCT360 26/15 Q1022 BLU+BLU+
11:20 am
V
77 °F 6¼ mi+ - 220°   220° 6 kt METAR ETHL 200920Z 22006KT 9999 FEW040 SCT380 25/14 Q1022 BLU+BLU+
10:20 am
V
73 °F 6¼ mi+ - 240°   240° 5 kt METAR ETHL 200820Z 24005KT 9999 FEW100 SCT380 23/13 Q1023 BLU+BLU+
9:20 am
V
68 °F 6¼ mi+ 36,000 ft 210°   210° 4 kt METAR ETHL 200720Z 21004KT 9999 FEW100 BKN360 20/14 Q1023 BLU+BLU+
Older data

Download our app

Easy access to all aviation weather on your mobile phone and tablet.
With many features not available on the website, like offline support and a personal airport list.

We and third parties follow your internet behavior on our website with cookies. If you continue, we assume you agree with our cookie policy. Learn more